Blankenberge, Belgium
Current Conditions -  °F | °C
As of 5:50 AM on Tuesday 23 Dec 2014 (Local Time) from EBOS Reporting Station
Broken Clouds Broken Clouds  
Wind Chill: 52°   Ceiling: 3000
Heat Index: 52°   Visibility: 6mi
Dew Point: 46°   Wind: 23mph
Humidity: 82%   Direction: 240°WSW
Pressure: 30.09"   Gusts: 35mph
Location:  51.31°N, 3.13°E
Report Text: EBOS 230450Z 24020G30KT 9999 FEW020 BKN030 11/08 Q1019 NOSIG
Loading
Personal Weather Stations






























Interactive Weather Map New forecast layout! Learn more

10-Day Weather Forecast

Advertisements
Track Severe Weather on mobile